createdAt,value
2022-11-27T00:01:23.349Z,95423.91
2022-11-27T00:03:50.282Z,95415.03
2022-11-27T00:06:19.646Z,95420.28
2022-11-27T00:08:47.004Z,95414.19
2022-11-27T00:11:16.649Z,95408.59
2022-11-27T00:13:43.224Z,95401.75
2022-11-27T00:16:10.382Z,95392.97
2022-11-27T00:18:37.113Z,95399.75
2022-11-27T00:21:19.031Z,95394.84
2022-11-27T00:23:45.702Z,95393.34
2022-11-27T00:26:12.220Z,95388.63
2022-11-27T00:28:38.708Z,95381.41
2022-11-27T00:31:12.685Z,95385.63
2022-11-27T00:33:39.156Z,95392.66
2022-11-27T00:36:07.729Z,95385.22
2022-11-27T00:38:38.759Z,95381.34
2022-11-27T00:41:06.755Z,95384.47
2022-11-27T00:43:43.521Z,95380.78
2022-11-27T00:46:14.944Z,95376.03
2022-11-27T00:48:42.703Z,95379.47
2022-11-27T00:51:12.499Z,95381.09
2022-11-27T00:53:39.632Z,95377.75
2022-11-27T00:56:06.283Z,95374.38
2022-11-27T00:58:32.748Z,95366.03
2022-11-27T01:01:02.132Z,95364.03
2022-11-27T01:03:29.725Z,95361.03
2022-11-27T01:05:56.444Z,95369.13
2022-11-27T01:08:23.261Z,95362.38
2022-11-27T01:10:55.264Z,95366.75
2022-11-27T01:13:30.385Z,95362.59
2022-11-27T01:16:04.246Z,95356.06
2022-11-27T01:18:31.246Z,95349.56
2022-11-27T01:20:58.091Z,95344.72
2022-11-27T01:23:24.599Z,95341.56
2022-11-27T01:25:53.703Z,95339.84
2022-11-27T01:28:22.183Z,95337.91
2022-11-27T01:30:49.371Z,95332.22
2022-11-27T01:33:16.447Z,95326.88
2022-11-27T01:35:42.916Z,95337.53
2022-11-27T01:38:09.419Z,95331.03
2022-11-27T01:40:35.856Z,95330.66
2022-11-27T01:43:02.338Z,95331.09
2022-11-27T01:45:28.893Z,95329.53
2022-11-27T01:47:59.292Z,95314.56
2022-11-27T01:50:30.074Z,95324.69
2022-11-27T01:53:02.668Z,95319.53
2022-11-27T01:55:35.637Z,95318.97
2022-11-27T01:58:08.223Z,95314.81
2022-11-27T02:00:34.959Z,95309.84
2022-11-27T02:03:01.576Z,95302.00
2022-11-27T02:05:29.238Z,95298.63
2022-11-27T02:07:59.018Z,95294.34
2022-11-27T02:10:38.156Z,95297.69
2022-11-27T02:13:11.502Z,95294.34
2022-11-27T02:15:46.819Z,95287.06
2022-11-27T02:18:33.133Z,95288.78
2022-11-27T02:21:10.807Z,95282.06
2022-11-27T02:23:56.683Z,95276.38
2022-11-27T02:26:41.892Z,95273.56
2022-11-27T02:29:13.779Z,95275.34
2022-11-27T02:31:51.706Z,95282.06
2022-11-27T02:34:43.312Z,95270.19
2022-11-27T02:37:22.507Z,95268.66
2022-11-27T02:40:08.090Z,95265.75
2022-11-27T02:42:41.217Z,95264.06
2022-11-27T02:45:12.532Z,95260.31
2022-11-27T02:47:40.854Z,95260.53
2022-11-27T02:50:12.035Z,95260.31
2022-11-27T02:52:39.986Z,95260.31
2022-11-27T02:55:11.214Z,95254.19
2022-11-27T02:57:40.162Z,95248.69
2022-11-27T03:00:07.856Z,95247.88
2022-11-27T03:02:39.625Z,95261.16
2022-11-27T03:05:09.227Z,95254.69
2022-11-27T03:07:41.793Z,95250.00
2022-11-27T03:10:24.319Z,95236.22
2022-11-27T03:12:51.964Z,95232.06
2022-11-27T03:15:20.940Z,95231.13
2022-11-27T03:18:01.044Z,95233.28
2022-11-27T03:20:32.764Z,95226.28
2022-11-27T03:22:59.204Z,95228.66
2022-11-27T03:25:25.634Z,95227.88
2022-11-27T03:27:58.177Z,95228.66
2022-11-27T03:30:24.814Z,95223.16
2022-11-27T03:32:51.371Z,95230.06
2022-11-27T03:35:21.699Z,95231.66
2022-11-27T03:37:48.653Z,95227.88
2022-11-27T03:40:16.273Z,95223.09
2022-11-27T03:43:07.274Z,95229.38
2022-11-27T03:45:55.299Z,95233.31
2022-11-27T03:48:50.135Z,95228.38
2022-11-27T03:51:41.611Z,95236.16
2022-11-27T03:54:21.789Z,95235.44
2022-11-27T03:57:20.490Z,95233.44
2022-11-27T03:59:51.468Z,95234.22
2022-11-27T04:02:31.698Z,95225.06
2022-11-27T04:04:59.064Z,95221.91
2022-11-27T04:07:25.532Z,95228.59
2022-11-27T04:09:51.948Z,95226.63
2022-11-27T04:12:18.390Z,95212.19
2022-11-27T04:14:44.792Z,95214.75
2022-11-27T04:17:11.267Z,95214.75
2022-11-27T04:19:37.652Z,95219.31
2022-11-27T04:22:04.113Z,95214.78
2022-11-27T04:24:30.519Z,95223.72
2022-11-27T04:26:56.897Z,95222.31
2022-11-27T04:29:23.319Z,95220.31
2022-11-27T04:31:49.830Z,95218.53
2022-11-27T04:34:16.248Z,95219.31
2022-11-27T04:36:42.793Z,95216.34
2022-11-27T04:39:09.277Z,95209.19
2022-11-27T04:41:35.686Z,95215.91
2022-11-27T04:44:02.125Z,95215.13
2022-11-27T04:46:28.568Z,95220.25
2022-11-27T04:48:54.975Z,95225.59
2022-11-27T04:51:21.394Z,95220.44
2022-11-27T04:53:47.786Z,95213.16
2022-11-27T04:56:14.555Z,95214.75
2022-11-27T04:58:41.074Z,95225.03
2022-11-27T05:01:09.280Z,95216.59
2022-11-27T05:03:36.012Z,95209.94
2022-11-27T05:06:03.208Z,95218.69
2022-11-27T05:08:31.595Z,95210.28
2022-11-27T05:11:00.304Z,95208.69
2022-11-27T05:13:26.890Z,95213.81
2022-11-27T05:15:53.319Z,95219.38
2022-11-27T05:18:19.769Z,95219.38
2022-11-27T05:20:46.196Z,95224.53
2022-11-27T05:23:12.590Z,95219.38
2022-11-27T05:25:39.380Z,95216.81
2022-11-27T05:28:05.795Z,95210.88
2022-11-27T05:30:32.287Z,95200.84
2022-11-27T05:32:58.691Z,95193.31
2022-11-27T05:35:25.100Z,95188.81
2022-11-27T05:37:51.472Z,95179.19
2022-11-27T05:40:17.912Z,95178.59
2022-11-27T05:42:44.322Z,95179.22
2022-11-27T05:45:10.901Z,95182.22
2022-11-27T05:47:37.315Z,95189.56
2022-11-27T05:50:03.972Z,95182.06
2022-11-27T05:52:30.423Z,95177.72
2022-11-27T05:54:56.861Z,95176.34
2022-11-27T05:57:23.443Z,95180.31
2022-11-27T05:59:49.881Z,95172.28
2022-11-27T06:02:21.589Z,95175.44
2022-11-27T06:04:50.499Z,95175.66
2022-11-27T06:07:17.173Z,95168.41
2022-11-27T06:09:43.863Z,95180.09
2022-11-27T06:12:10.755Z,95173.81
2022-11-27T06:14:37.144Z,95174.81
2022-11-27T06:17:03.759Z,95178.34
2022-11-27T06:19:30.562Z,95179.19
2022-11-27T06:21:56.995Z,95183.56
2022-11-27T06:24:23.385Z,95182.06
2022-11-27T06:26:49.809Z,95178.72
2022-11-27T06:29:16.209Z,95168.16
2022-11-27T06:31:42.638Z,95165.66
2022-11-27T06:34:11.533Z,95168.84
2022-11-27T06:36:40.664Z,95162.75
2022-11-27T06:39:10.080Z,95163.38
2022-11-27T06:41:36.543Z,95161.44
2022-11-27T06:44:03.429Z,95159.72
2022-11-27T06:46:30.281Z,95159.31
2022-11-27T06:48:57.732Z,95160.88
2022-11-27T06:51:26.851Z,95163.06
2022-11-27T06:53:53.805Z,95165.81
2022-11-27T06:56:24.000Z,95163.25
2022-11-27T06:58:52.306Z,95164.63
2022-11-27T07:01:19.166Z,95159.91
2022-11-27T07:03:45.661Z,95159.09
2022-11-27T07:06:18.076Z,95157.28
2022-11-27T07:08:44.485Z,95156.66
2022-11-27T07:11:18.342Z,95153.13
2022-11-27T07:13:49.755Z,95149.16
2022-11-27T07:16:17.245Z,95151.09
2022-11-27T07:18:46.142Z,95155.06
2022-11-27T07:21:12.744Z,95171.38
2022-11-27T07:23:39.451Z,95177.84
2022-11-27T07:26:07.675Z,95177.44
2022-11-27T07:28:34.584Z,95176.66
2022-11-27T07:31:01.528Z,95180.56
2022-11-27T07:33:28.067Z,95175.84
2022-11-27T07:36:03.253Z,95180.38
2022-11-27T07:38:29.695Z,95174.25
2022-11-27T07:40:59.438Z,95169.13
2022-11-27T07:43:25.843Z,95164.19
2022-11-27T07:45:52.246Z,95152.91
2022-11-27T07:48:18.917Z,95153.28
2022-11-27T07:50:45.331Z,95148.72
2022-11-27T07:53:11.733Z,95144.16
2022-11-27T07:55:39.628Z,95152.03
2022-11-27T07:58:07.757Z,95161.06
2022-11-27T08:00:35.548Z,95156.31
2022-11-27T08:03:02.462Z,95158.25
2022-11-27T08:05:29.337Z,95154.28
2022-11-27T08:07:56.071Z,95162.13
2022-11-27T08:10:22.582Z,95157.75
2022-11-27T08:12:49.065Z,95157.69
2022-11-27T08:15:15.453Z,95142.44
2022-11-27T08:17:42.047Z,95131.97
2022-11-27T08:20:08.817Z,95122.88
2022-11-27T08:22:35.398Z,95128.78
2022-11-27T08:25:01.796Z,95123.84
2022-11-27T08:27:28.259Z,95125.28
2022-11-27T08:29:54.631Z,95106.56
2022-11-27T08:32:21.093Z,95118.44
2022-11-27T08:34:47.482Z,95116.38
2022-11-27T08:37:13.931Z,95113.16
2022-11-27T08:39:40.412Z,95112.72
2022-11-27T08:42:06.851Z,95115.84
2022-11-27T08:44:33.268Z,95122.13
2022-11-27T08:46:59.742Z,95131.97
2022-11-27T08:49:26.180Z,95126.78
2022-11-27T08:51:52.715Z,95133.91
2022-11-27T08:54:19.134Z,95137.44
2022-11-27T08:56:45.532Z,95130.25
2022-11-27T08:59:11.967Z,95138.63
2022-11-27T09:01:38.507Z,95129.56
2022-11-27T09:04:05.128Z,95120.00
2022-11-27T09:06:36.268Z,95115.22
2022-11-27T09:09:05.607Z,95107.81
2022-11-27T09:11:33.084Z,95111.03
2022-11-27T09:14:01.023Z,95115.16
2022-11-27T09:16:29.081Z,95108.78
2022-11-27T09:18:56.023Z,95097.16
2022-11-27T09:21:27.102Z,95110.38
2022-11-27T09:23:55.019Z,95110.38
2022-11-27T09:26:23.760Z,95115.66
2022-11-27T09:28:50.340Z,95112.47
2022-11-27T09:31:16.800Z,95111.81
2022-11-27T09:33:44.214Z,95098.41
2022-11-27T09:36:16.191Z,95098.59
2022-11-27T09:38:42.739Z,95105.22
2022-11-27T09:41:48.905Z,95099.53
2022-11-27T09:44:45.212Z,95092.75
2022-11-27T09:47:21.340Z,95091.53
2022-11-27T09:49:58.871Z,95085.44
2022-11-27T09:52:44.181Z,95084.56
2022-11-27T09:55:21.210Z,95081.44
2022-11-27T09:58:00.691Z,95077.75
2022-11-27T10:00:27.362Z,95073.31
2022-11-27T10:02:54.314Z,95072.19
2022-11-27T10:05:33.108Z,95066.44
2022-11-27T10:08:27.209Z,95057.38
2022-11-27T10:11:12.863Z,95054.56
2022-11-27T10:13:54.792Z,95044.06
2022-11-27T10:16:42.855Z,95048.91
2022-11-27T10:19:39.486Z,95056.31
2022-11-27T10:22:21.170Z,95062.56
2022-11-27T10:25:16.777Z,95051.28
2022-11-27T10:28:06.642Z,95042.44
2022-11-27T10:30:39.420Z,95038.31
2022-11-27T10:33:17.759Z,95045.00
2022-11-27T10:35:47.782Z,95031.72
2022-11-27T10:38:36.137Z,95014.69
2022-11-27T10:41:23.531Z,95019.84
2022-11-27T10:44:01.806Z,95016.06
2022-11-27T10:46:32.137Z,95028.25
2022-11-27T10:48:58.548Z,95031.38
2022-11-27T10:51:31.195Z,95032.97
2022-11-27T10:54:00.757Z,95029.53
2022-11-27T10:56:58.851Z,95008.16
2022-11-27T10:59:33.175Z,95001.03
2022-11-27T11:02:03.233Z,95002.91
2022-11-27T11:04:37.978Z,95014.44
2022-11-27T11:07:29.281Z,95009.97
2022-11-27T11:09:56.374Z,95005.94
2022-11-27T11:12:23.917Z,94996.31
2022-11-27T11:14:58.986Z,94993.06
2022-11-27T11:17:28.030Z,94989.16
2022-11-27T11:19:54.809Z,95010.97
2022-11-27T11:22:21.604Z,94991.41
2022-11-27T11:24:50.979Z,94984.22
2022-11-27T11:27:23.081Z,94992.38
2022-11-27T11:29:53.306Z,94987.25
2022-11-27T11:32:19.687Z,94982.31
2022-11-27T11:34:59.232Z,94982.44
2022-11-27T11:37:30.357Z,94984.78
2022-11-27T11:40:00.891Z,94980.84
2022-11-27T11:42:32.419Z,94991.16
2022-11-27T11:45:06.626Z,94977.19
2022-11-27T11:47:33.195Z,94971.25
2022-11-27T11:49:59.619Z,94968.56
2022-11-27T11:52:35.185Z,94964.75
2022-11-27T11:55:13.842Z,94952.78
2022-11-27T11:58:03.825Z,94944.59
2022-11-27T12:00:58.401Z,94947.28
2022-11-27T12:03:38.917Z,94942.47
2022-11-27T12:06:31.290Z,94934.41
2022-11-27T12:09:10.249Z,94927.56
2022-11-27T12:11:50.488Z,94921.81
2022-11-27T12:14:38.845Z,94920.09
2022-11-27T12:17:20.492Z,94920.84
2022-11-27T12:20:25.956Z,94908.84
2022-11-27T12:23:16.271Z,94908.31
2022-11-27T12:26:14.231Z,94892.19
2022-11-27T12:29:08.328Z,94902.78
2022-11-27T12:31:59.207Z,94896.09
2022-11-27T12:34:28.533Z,94892.09
2022-11-27T12:37:13.893Z,94882.63
2022-11-27T12:39:56.928Z,94880.88
2022-11-27T12:42:32.134Z,94876.53
2022-11-27T12:45:12.506Z,94869.28
2022-11-27T12:47:43.127Z,94869.28
2022-11-27T12:50:20.456Z,94856.03
2022-11-27T12:52:59.534Z,94856.97
2022-11-27T12:55:30.276Z,94855.59
2022-11-27T12:58:03.407Z,94848.44
2022-11-27T13:00:31.953Z,94850.69
2022-11-27T13:03:15.943Z,94840.63
2022-11-27T13:05:49.817Z,94846.56
2022-11-27T13:08:24.097Z,94838.94
2022-11-27T13:11:01.429Z,94841.81
2022-11-27T13:13:51.896Z,94842.72
2022-11-27T13:16:46.691Z,94847.88
2022-11-27T13:19:28.802Z,94847.09
2022-11-27T13:21:57.688Z,94840.97
2022-11-27T13:24:26.553Z,94845.56
2022-11-27T13:27:09.863Z,94848.06
2022-11-27T13:29:47.739Z,94849.63
2022-11-27T13:32:27.445Z,94846.09
2022-11-27T13:34:57.614Z,94843.97
2022-11-27T13:37:33.403Z,94843.66
2022-11-27T13:40:16.529Z,94834.47
2022-11-27T13:42:45.630Z,94833.72
2022-11-27T13:45:21.866Z,94830.28
2022-11-27T13:47:50.512Z,94832.75
2022-11-27T13:50:21.606Z,94830.84
2022-11-27T13:52:57.206Z,94825.25
2022-11-27T13:55:33.043Z,94829.97
2022-11-27T13:58:01.262Z,94823.59
2022-11-27T14:00:45.862Z,94820.69
2022-11-27T14:03:28.132Z,94824.94
2022-11-27T14:05:56.034Z,94826.41
2022-11-27T14:08:27.135Z,94830.41
2022-11-27T14:11:08.687Z,94839.59
2022-11-27T14:13:39.350Z,94830.19
2022-11-27T14:16:23.993Z,94816.31
2022-11-27T14:18:53.358Z,94808.75
2022-11-27T14:21:38.913Z,94806.72
2022-11-27T14:24:27.625Z,94798.00
2022-11-27T14:26:54.964Z,94789.94
2022-11-27T14:29:23.155Z,94785.59
2022-11-27T14:31:58.207Z,94788.81
2022-11-27T14:34:32.009Z,94784.44
2022-11-27T14:36:59.716Z,94785.34
2022-11-27T14:39:30.893Z,94782.00
2022-11-27T14:42:02.592Z,94789.16
2022-11-27T14:44:29.691Z,94774.19
2022-11-27T14:46:58.260Z,94778.53
2022-11-27T14:49:26.911Z,94782.88
2022-11-27T14:51:54.514Z,94781.53
2022-11-27T14:54:31.397Z,94772.41
2022-11-27T14:56:58.448Z,94769.03
2022-11-27T14:59:25.804Z,94774.28
2022-11-27T15:02:18.273Z,94771.38
2022-11-27T15:04:46.622Z,94771.03
2022-11-27T15:07:21.305Z,94768.69
2022-11-27T15:09:51.143Z,94754.06
2022-11-27T15:12:19.194Z,94760.31
2022-11-27T15:14:54.670Z,94745.34
2022-11-27T15:17:27.002Z,94733.19
2022-11-27T15:19:54.693Z,94724.47
2022-11-27T15:22:21.759Z,94741.22
2022-11-27T15:25:01.944Z,94730.81
2022-11-27T15:27:31.875Z,94725.13
2022-11-27T15:30:12.102Z,94725.56
2022-11-27T15:32:55.334Z,94707.50
2022-11-27T15:35:29.991Z,94704.34
2022-11-27T15:37:58.074Z,94696.09
2022-11-27T15:40:33.559Z,94688.63
2022-11-27T15:43:00.011Z,94672.06
2022-11-27T15:45:32.406Z,94670.97
2022-11-27T15:48:00.885Z,94663.72
2022-11-27T15:50:29.453Z,94654.66
2022-11-27T15:52:56.284Z,94665.81
2022-11-27T15:55:23.426Z,94659.56
2022-11-27T15:57:49.855Z,94656.09
2022-11-27T16:00:16.801Z,94656.84
2022-11-27T16:02:43.308Z,94661.41
2022-11-27T16:05:09.972Z,94655.38
2022-11-27T16:07:36.467Z,94650.25
2022-11-27T16:10:03.430Z,94645.13
2022-11-27T16:12:29.904Z,94648.34
2022-11-27T16:14:56.291Z,94651.28
2022-11-27T16:17:22.669Z,94644.91
2022-11-27T16:19:49.332Z,94650.63
2022-11-27T16:22:15.776Z,94644.91
2022-11-27T16:24:42.587Z,94657.19
2022-11-27T16:27:09.632Z,94647.59
2022-11-27T16:29:36.044Z,94647.81
2022-11-27T16:32:02.589Z,94654.66
2022-11-27T16:34:29.240Z,94642.72
2022-11-27T16:36:55.689Z,94642.28
2022-11-27T16:39:23.321Z,94637.03
2022-11-27T16:41:49.749Z,94634.25
2022-11-27T16:44:17.985Z,94632.56
2022-11-27T16:46:44.566Z,94637.47
2022-11-27T16:49:12.021Z,94631.78
2022-11-27T16:51:39.929Z,94627.09
2022-11-27T16:54:11.844Z,94623.06
2022-11-27T16:56:40.600Z,94620.84
2022-11-27T16:59:09.654Z,94624.97
2022-11-27T17:01:37.144Z,94623.75
2022-11-27T17:04:06.982Z,94623.19
2022-11-27T17:06:33.786Z,94609.34
2022-11-27T17:09:02.251Z,94611.91
2022-11-27T17:11:33.656Z,94614.16
2022-11-27T17:14:03.797Z,94614.91
2022-11-27T17:16:31.081Z,94615.25
2022-11-27T17:18:58.445Z,94611.25
2022-11-27T17:21:31.827Z,94614.03
2022-11-27T17:24:04.458Z,94604.31
2022-11-27T17:26:38.545Z,94606.22
2022-11-27T17:29:05.021Z,94603.41
2022-11-27T17:31:33.547Z,94600.19
2022-11-27T17:34:00.448Z,94592.78
2022-11-27T17:36:36.468Z,94583.84
2022-11-27T17:39:05.413Z,94580.28
2022-11-27T17:41:32.802Z,94581.53
2022-11-27T17:43:59.350Z,94577.97
2022-11-27T17:46:27.736Z,94569.56
2022-11-27T17:48:57.848Z,94572.34
2022-11-27T17:51:24.618Z,94561.75
2022-11-27T17:53:51.340Z,94551.16
2022-11-27T17:56:20.444Z,94545.91
2022-11-27T17:58:47.358Z,94552.50
2022-11-27T18:01:19.473Z,94554.53
2022-11-27T18:03:46.902Z,94548.06
2022-11-27T18:06:17.040Z,94543.38
2022-11-27T18:08:44.791Z,94538.34
2022-11-27T18:11:17.775Z,94539.38
2022-11-27T18:13:44.942Z,94533.09
2022-11-27T18:16:15.574Z,94537.16
2022-11-27T18:18:43.510Z,94527.09
2022-11-27T18:21:18.101Z,94531.47
2022-11-27T18:24:20.887Z,94525.31
2022-11-27T18:27:00.423Z,94524.31
2022-11-27T18:29:20.815Z,94523.75
2022-11-27T18:31:47.650Z,94518.28
2022-11-27T18:34:14.284Z,94512.91
2022-11-27T18:36:40.669Z,94510.59
2022-11-27T18:39:07.091Z,94509.81
2022-11-27T18:41:34.632Z,94508.47
2022-11-27T18:44:01.962Z,94510.69
2022-11-27T18:46:29.617Z,94513.25
2022-11-27T18:48:56.130Z,94510.16
2022-11-27T18:51:24.572Z,94504.03
2022-11-27T18:53:52.166Z,94497.31
2022-11-27T18:56:21.779Z,94494.97
2022-11-27T18:58:49.091Z,94498.75
2022-11-27T19:01:25.438Z,94491.63
2022-11-27T19:03:52.431Z,94482.13
2022-11-27T19:06:20.625Z,94481.38
2022-11-27T19:08:48.243Z,94478.22
2022-11-27T19:11:17.491Z,94483.34
2022-11-27T19:13:45.385Z,94478.56
2022-11-27T19:16:22.646Z,94480.94
2022-11-27T19:18:49.553Z,94475.00
2022-11-27T19:21:21.300Z,94479.34
2022-11-27T19:23:50.549Z,94475.22
2022-11-27T19:26:20.169Z,94467.50
2022-11-27T19:28:52.645Z,94448.91
2022-11-27T19:31:20.084Z,94450.56
2022-11-27T19:33:52.367Z,94456.47
2022-11-27T19:36:19.500Z,94456.47
2022-11-27T19:38:46.178Z,94444.41
2022-11-27T19:41:17.763Z,94447.44
2022-11-27T19:43:45.184Z,94439.97
2022-11-27T19:46:25.563Z,94427.84
2022-11-27T19:48:56.665Z,94425.81
2022-11-27T19:51:24.224Z,94425.81
2022-11-27T19:53:50.882Z,94440.75
2022-11-27T19:56:17.725Z,94432.28
2022-11-27T19:58:44.395Z,94425.38
2022-11-27T20:01:17.286Z,94424.13
2022-11-27T20:03:44.727Z,94416.44
2022-11-27T20:06:18.580Z,94404.84
2022-11-27T20:08:46.921Z,94398.91
2022-11-27T20:11:16.144Z,94391.22
2022-11-27T20:13:42.833Z,94388.41
2022-11-27T20:16:11.621Z,94384.31
2022-11-27T20:18:38.247Z,94380.41
2022-11-27T20:21:11.373Z,94381.50
2022-11-27T20:23:38.698Z,94389.00
2022-11-27T20:26:07.037Z,94383.94
2022-11-27T20:28:34.209Z,94386.06
2022-11-27T20:31:01.928Z,94378.91
2022-11-27T20:33:29.932Z,94371.75
2022-11-27T20:35:56.965Z,94374.88
2022-11-27T20:38:24.558Z,94375.34
2022-11-27T20:40:51.267Z,94379.25
2022-11-27T20:43:19.107Z,94379.53
2022-11-27T20:45:46.462Z,94373.94
2022-11-27T20:48:13.021Z,94368.81
2022-11-27T20:50:39.939Z,94377.84
2022-11-27T20:53:06.905Z,94378.09
2022-11-27T20:55:34.283Z,94369.59
2022-11-27T20:58:00.767Z,94351.38
2022-11-27T21:00:27.550Z,94371.84
2022-11-27T21:02:54.164Z,94365.16
2022-11-27T21:05:20.737Z,94376.53
2022-11-27T21:07:47.267Z,94369.16
2022-11-27T21:10:16.572Z,94374.59
2022-11-27T21:12:43.460Z,94371.47
2022-11-27T21:15:10.410Z,94364.09
2022-11-27T21:17:36.980Z,94362.31
2022-11-27T21:20:04.372Z,94360.53
2022-11-27T21:22:31.510Z,94340.66
2022-11-27T21:24:59.326Z,94336.94
2022-11-27T21:27:27.601Z,94332.25
2022-11-27T21:29:53.975Z,94343.06
2022-11-27T21:32:22.595Z,94334.81
2022-11-27T21:34:49.223Z,94328.13
2022-11-27T21:37:15.647Z,94330.94
2022-11-27T21:39:44.064Z,94328.56
2022-11-27T21:42:10.999Z,94310.59
2022-11-27T21:44:41.252Z,94295.44
2022-11-27T21:47:11.940Z,94302.81
2022-11-27T21:49:39.900Z,94300.72
2022-11-27T21:52:08.470Z,94299.84
2022-11-27T21:54:35.911Z,94299.09
2022-11-27T21:57:02.456Z,94293.19
2022-11-27T21:59:28.925Z,94293.38
2022-11-27T22:01:57.195Z,94290.28
2022-11-27T22:04:25.215Z,94285.16
2022-11-27T22:06:51.645Z,94277.00
2022-11-27T22:09:18.464Z,94292.94
2022-11-27T22:11:46.421Z,94290.44
2022-11-27T22:14:14.888Z,94281.06
2022-11-27T22:16:45.761Z,94282.50
2022-11-27T22:19:14.422Z,94283.94
2022-11-27T22:21:41.231Z,94291.81
2022-11-27T22:24:12.155Z,94288.25
2022-11-27T22:26:43.276Z,94282.88
2022-11-27T22:29:09.711Z,94287.78
2022-11-27T22:31:36.605Z,94283.19
2022-11-27T22:34:03.780Z,94272.59
2022-11-27T22:36:34.752Z,94276.03
2022-11-27T22:39:05.258Z,94275.81
2022-11-27T22:41:36.073Z,94271.91
2022-11-27T22:44:13.916Z,94269.09
2022-11-27T22:46:42.175Z,94267.25
2022-11-27T22:49:11.704Z,94255.41
2022-11-27T22:51:38.919Z,94265.69
2022-11-27T22:54:07.220Z,94255.41
2022-11-27T22:56:33.788Z,94261.78
2022-11-27T22:59:30.509Z,94257.13
2022-11-27T23:01:48.546Z,94257.03
2022-11-27T23:04:15.984Z,94266.75
2022-11-27T23:06:44.419Z,94263.50
2022-11-27T23:09:11.136Z,94271.28
2022-11-27T23:11:37.604Z,94265.94
2022-11-27T23:14:04.009Z,94264.13
2022-11-27T23:16:30.451Z,94259.00
2022-11-27T23:18:57.326Z,94262.31
2022-11-27T23:21:24.489Z,94255.88
2022-11-27T23:23:51.606Z,94254.09
2022-11-27T23:26:20.520Z,94256.66
2022-11-27T23:28:49.155Z,94255.88
2022-11-27T23:31:31.988Z,94252.31
2022-11-27T23:34:01.256Z,94237.38
2022-11-27T23:36:28.147Z,94238.38
2022-11-27T23:38:54.647Z,94235.78
2022-11-27T23:41:23.619Z,94230.19
2022-11-27T23:43:51.411Z,94228.19
2022-11-27T23:46:19.451Z,94235.66
2022-11-27T23:48:46.029Z,94228.03
2022-11-27T23:51:18.628Z,94221.19
2022-11-27T23:53:46.167Z,94224.00
2022-11-27T23:56:15.776Z,94212.41
2022-11-27T23:58:47.033Z,94211.94
